sensor_id;sensor_type;location;lat;lon;timestamp;pressure;altitude;pressure_sealevel;temperature;humidity
78170;BME280;67412;49.892;14.490;2024-03-02T00:01:57;96170.31;;;7.41;100.00
78170;BME280;67412;49.892;14.490;2024-03-02T00:04:23;96171.19;;;7.40;100.00
78170;BME280;67412;49.892;14.490;2024-03-02T00:06:51;96171.25;;;7.37;100.00
78170;BME280;67412;49.892;14.490;2024-03-02T00:09:18;96173.75;;;7.40;100.00
78170;BME280;67412;49.892;14.490;2024-03-02T00:11:43;96176.31;;;7.40;100.00
78170;BME280;67412;49.892;14.490;2024-03-02T00:14:09;96177.16;;;7.41;100.00
78170;BME280;67412;49.892;14.490;2024-03-02T00:16:34;96182.25;;;7.41;100.00
78170;BME280;67412;49.892;14.490;2024-03-02T00:19:05;96180.63;;;7.38;100.00
78170;BME280;67412;49.892;14.490;2024-03-02T00:21:32;96180.56;;;7.41;100.00
78170;BME280;67412;49.892;14.490;2024-03-02T00:23:58;96177.94;;;7.44;100.00
78170;BME280;67412;49.892;14.490;2024-03-02T00:26:25;96171.94;;;7.45;100.00
78170;BME280;67412;49.892;14.490;2024-03-02T00:28:54;96181.25;;;7.48;100.00
78170;BME280;67412;49.892;14.490;2024-03-02T00:31:22;96172.81;;;7.44;100.00
78170;BME280;67412;49.892;14.490;2024-03-02T00:33:48;96177.00;;;7.47;100.00
78170;BME280;67412;49.892;14.490;2024-03-02T00:36:15;96169.47;;;7.42;100.00
78170;BME280;67412;49.892;14.490;2024-03-02T00:38:45;96174.56;;;7.42;100.00
78170;BME280;67412;49.892;14.490;2024-03-02T00:41:16;96176.97;;;7.50;100.00
78170;BME280;67412;49.892;14.490;2024-03-02T00:46:22;96175.38;;;7.43;100.00
78170;BME280;67412;49.892;14.490;2024-03-02T00:48:56;96179.63;;;7.45;100.00
78170;BME280;67412;49.892;14.490;2024-03-02T00:51:22;96180.41;;;7.49;100.00
78170;BME280;67412;49.892;14.490;2024-03-02T00:53:49;96183.00;;;7.46;100.00
78170;BME280;67412;49.892;14.490;2024-03-02T00:56:14;96180.47;;;7.46;100.00
78170;BME280;67412;49.892;14.490;2024-03-02T00:58:40;96184.66;;;7.48;100.00
78170;BME280;67412;49.892;14.490;2024-03-02T01:01:06;96188.16;;;7.44;100.00
78170;BME280;67412;49.892;14.490;2024-03-02T01:03:33;96184.66;;;7.48;100.00
78170;BME280;67412;49.892;14.490;2024-03-02T01:05:58;96187.22;;;7.48;100.00
78170;BME280;67412;49.892;14.490;2024-03-02T01:08:24;96187.28;;;7.45;100.00
78170;BME280;67412;49.892;14.490;2024-03-02T01:10:49;96186.34;;;7.49;100.00
78170;BME280;67412;49.892;14.490;2024-03-02T01:13:15;96188.00;;;7.50;100.00
78170;BME280;67412;49.892;14.490;2024-03-02T01:15:40;96188.06;;;7.47;100.00
78170;BME280;67412;49.892;14.490;2024-03-02T01:18:05;96190.63;;;7.47;100.00
78170;BME280;67412;49.892;14.490;2024-03-02T01:20:31;96186.38;;;7.46;100.00
78170;BME280;67412;49.892;14.490;2024-03-02T01:22:56;96189.84;;;7.45;100.00
78170;BME280;67412;49.892;14.490;2024-03-02T01:25:22;96187.38;;;7.41;100.00
78170;BME280;67412;49.892;14.490;2024-03-02T01:27:47;96180.47;;;7.44;100.00
78170;BME280;67412;49.892;14.490;2024-03-02T01:30:12;96179.56;;;7.47;100.00
78170;BME280;67412;49.892;14.490;2024-03-02T01:32:38;96182.25;;;7.42;100.00
78170;BME280;67412;49.892;14.490;2024-03-02T01:35:04;96183.00;;;7.46;100.00
78170;BME280;67412;49.892;14.490;2024-03-02T01:37:30;96177.09;;;7.44;100.00
78170;BME280;67412;49.892;14.490;2024-03-02T01:39:55;96183.06;;;7.43;100.00
78170;BME280;67412;49.892;14.490;2024-03-02T01:42:20;96177.94;;;7.44;100.00
78170;BME280;67412;49.892;14.490;2024-03-02T01:44:46;96177.09;;;7.44;100.00
78170;BME280;67412;49.892;14.490;2024-03-02T01:47:11;96179.69;;;7.42;100.00
78170;BME280;67412;49.892;14.490;2024-03-02T01:49:37;96178.84;;;7.40;100.00
78170;BME280;67412;49.892;14.490;2024-03-02T01:52:04;96181.41;;;7.40;100.00
78170;BME280;67412;49.892;14.490;2024-03-02T01:54:29;96182.25;;;7.42;100.00
78170;BME280;67412;49.892;14.490;2024-03-02T01:56:54;96178.78;;;7.43;100.00
78170;BME280;67412;49.892;14.490;2024-03-02T01:59:20;96179.63;;;7.44;100.00
78170;BME280;67412;49.892;14.490;2024-03-02T02:01:45;96174.59;;;7.39;100.00
78170;BME280;67412;49.892;14.490;2024-03-02T02:04:11;96172.03;;;7.41;100.00
78170;BME280;67412;49.892;14.490;2024-03-02T02:06:36;96178.78;;;7.43;100.00
78170;BME280;67412;49.892;14.490;2024-03-02T02:09:01;96173.81;;;7.37;100.00
78170;BME280;67412;49.892;14.490;2024-03-02T02:11:27;96171.31;;;7.34;100.00
78170;BME280;67412;49.892;14.490;2024-03-02T02:13:53;96157.72;;;7.32;100.00
78170;BME280;67412;49.892;14.490;2024-03-02T02:16:20;96166.22;;;7.34;100.00
78170;BME280;67412;49.892;14.490;2024-03-02T02:18:46;96170.50;;;7.32;100.00
78170;BME280;67412;49.892;14.490;2024-03-02T02:21:12;96170.47;;;7.34;100.00
78170;BME280;67412;49.892;14.490;2024-03-02T02:23:37;96168.78;;;7.33;100.00
78170;BME280;67412;49.892;14.490;2024-03-02T02:26:03;96168.09;;;7.24;100.00
78170;BME280;67412;49.892;14.490;2024-03-02T02:28:29;96171.56;;;7.22;100.00
78170;BME280;67412;49.892;14.490;2024-03-02T02:30:55;96165.69;;;7.18;100.00
78170;BME280;67412;49.892;14.490;2024-03-02T02:33:21;96169.09;;;7.17;100.00
78170;BME280;67412;49.892;14.490;2024-03-02T02:35:47;96182.88;;;7.09;100.00
78170;BME280;67412;49.892;14.490;2024-03-02T02:38:12;96182.13;;;7.04;100.00
78170;BME280;67412;49.892;14.490;2024-03-02T02:40:37;96186.53;;;6.96;100.00
78170;BME280;67412;49.892;14.490;2024-03-02T02:43:03;96184.03;;;6.93;100.00
78170;BME280;67412;49.892;14.490;2024-03-02T02:45:28;96176.47;;;6.88;100.00
78170;BME280;67412;49.892;14.490;2024-03-02T02:47:54;96180.72;;;6.89;100.00
78170;BME280;67412;49.892;14.490;2024-03-02T02:50:19;96179.09;;;6.84;100.00
78170;BME280;67412;49.892;14.490;2024-03-02T02:52:45;96178.28;;;6.82;100.00
78170;BME280;67412;49.892;14.490;2024-03-02T02:55:12;96180.81;;;6.83;100.00
78170;BME280;67412;49.892;14.490;2024-03-02T02:57:39;96182.56;;;6.79;100.00
78170;BME280;67412;49.892;14.490;2024-03-02T03:00:16;96180.06;;;6.78;100.00
78170;BME280;67412;49.892;14.490;2024-03-02T03:02:43;96175.81;;;6.77;100.00
78170;BME280;67412;49.892;14.490;2024-03-02T03:05:11;96174.09;;;6.77;100.00
78170;BME280;67412;49.892;14.490;2024-03-02T03:07:36;96186.09;;;6.72;100.00
78170;BME280;67412;49.892;14.490;2024-03-02T03:10:03;96180.13;;;6.73;100.00
78170;BME280;67412;49.892;14.490;2024-03-02T03:12:29;96184.31;;;6.77;100.00
78170;BME280;67412;49.892;14.490;2024-03-02T03:14:55;96186.00;;;6.78;100.00
78170;BME280;67412;49.892;14.490;2024-03-02T03:17:24;96179.22;;;6.76;100.00
78170;BME280;67412;49.892;14.490;2024-03-02T03:19:50;96188.56;;;6.77;100.00
78170;BME280;67412;49.892;14.490;2024-03-02T03:22:15;96188.66;;;6.72;100.00
78170;BME280;67412;49.892;14.490;2024-03-02T03:24:41;96184.47;;;6.68;100.00
78170;BME280;67412;49.892;14.490;2024-03-02T03:27:06;96182.75;;;6.70;100.00
78170;BME280;67412;49.892;14.490;2024-03-02T03:29:31;96183.59;;;6.71;100.00
78170;BME280;67412;49.892;14.490;2024-03-02T03:31:57;96187.00;;;6.70;100.00
78170;BME280;67412;49.892;14.490;2024-03-02T03:34:22;96188.69;;;6.71;100.00
78170;BME280;67412;49.892;14.490;2024-03-02T03:36:47;96193.75;;;6.74;100.00
78170;BME280;67412;49.892;14.490;2024-03-02T03:39:13;96197.13;;;6.74;100.00
78170;BME280;67412;49.892;14.490;2024-03-02T03:41:40;96191.19;;;6.72;100.00
78170;BME280;67412;49.892;14.490;2024-03-02T03:44:05;96189.50;;;6.71;100.00
78170;BME280;67412;49.892;14.490;2024-03-02T03:46:31;96196.44;;;6.66;100.00
78170;BME280;67412;49.892;14.490;2024-03-02T03:48:56;96189.56;;;6.68;100.00
78170;BME280;67412;49.892;14.490;2024-03-02T03:51:21;96187.06;;;6.65;100.00
78170;BME280;67412;49.892;14.490;2024-03-02T03:53:49;96188.78;;;6.65;100.00
78170;BME280;67412;49.892;14.490;2024-03-02T03:56:15;96187.94;;;6.64;100.00
78170;BME280;67412;49.892;14.490;2024-03-02T03:58:40;96189.63;;;6.64;100.00
78170;BME280;67412;49.892;14.490;2024-03-02T04:01:05;96197.28;;;6.65;100.00
78170;BME280;67412;49.892;14.490;2024-03-02T04:03:31;96188.78;;;6.66;100.00
78170;BME280;67412;49.892;14.490;2024-03-02T04:05:56;96193.09;;;6.61;100.00
78170;BME280;67412;49.892;14.490;2024-03-02T04:08:21;96193.94;;;6.62;100.00
78170;BME280;67412;49.892;14.490;2024-03-02T04:10:47;96189.69;;;6.61;100.00
78170;BME280;67412;49.892;14.490;2024-03-02T04:13:12;96189.81;;;6.53;100.00
78170;BME280;67412;49.892;14.490;2024-03-02T04:15:37;96195.81;;;6.52;100.00
78170;BME280;67412;49.892;14.490;2024-03-02T04:18:03;96193.34;;;6.48;100.00
78170;BME280;67412;49.892;14.490;2024-03-02T04:20:28;96194.19;;;6.48;100.00
78170;BME280;67412;49.892;14.490;2024-03-02T04:22:54;96205.25;;;6.47;100.00
78170;BME280;67412;49.892;14.490;2024-03-02T04:25:20;96200.16;;;6.47;100.00
78170;BME280;67412;49.892;14.490;2024-03-02T04:27:45;96206.94;;;6.48;100.00
78170;BME280;67412;49.892;14.490;2024-03-02T04:30:11;96203.56;;;6.46;100.00
78170;BME280;67412;49.892;14.490;2024-03-02T04:32:36;96212.84;;;6.52;100.00
78170;BME280;67412;49.892;14.490;2024-03-02T04:35:01;96212.00;;;6.50;100.00
78170;BME280;67412;49.892;14.490;2024-03-02T04:37:27;96213.75;;;6.46;100.00
78170;BME280;67412;49.892;14.490;2024-03-02T04:39:52;96210.41;;;6.44;100.00
78170;BME280;67412;49.892;14.490;2024-03-02T04:42:18;96208.59;;;6.49;100.00
78170;BME280;67412;49.892;14.490;2024-03-02T04:44:43;96212.78;;;6.53;100.00
78170;BME280;67412;49.892;14.490;2024-03-02T04:47:08;96221.28;;;6.55;100.00
78170;BME280;67412;49.892;14.490;2024-03-02T04:49:33;96229.91;;;6.47;100.00
78170;BME280;67412;49.892;14.490;2024-03-02T04:51:59;96226.50;;;6.48;100.00
78170;BME280;67412;49.892;14.490;2024-03-02T04:54:24;96229.81;;;6.53;100.00
78170;BME280;67412;49.892;14.490;2024-03-02T04:56:50;96222.19;;;6.50;100.00
78170;BME280;67412;49.892;14.490;2024-03-02T04:59:16;96224.00;;;6.45;100.00
78170;BME280;67412;49.892;14.490;2024-03-02T05:01:42;96219.81;;;6.39;100.00
78170;BME280;67412;49.892;14.490;2024-03-02T05:04:08;96221.53;;;6.40;100.00
78170;BME280;67412;49.892;14.490;2024-03-02T05:06:35;96226.56;;;6.42;100.00
78170;BME280;67412;49.892;14.490;2024-03-02T05:09:01;96227.44;;;6.42;100.00
78170;BME280;67412;49.892;14.490;2024-03-02T05:11:26;96228.28;;;6.41;100.00
78170;BME280;67412;49.892;14.490;2024-03-02T05:14:11;96235.03;;;6.45;100.00
78170;BME280;67412;49.892;14.490;2024-03-02T05:16:36;96238.47;;;6.44;100.00
78170;BME280;67412;49.892;14.490;2024-03-02T05:19:03;96243.59;;;6.41;100.00
78170;BME280;67412;49.892;14.490;2024-03-02T05:21:32;96249.50;;;6.45;100.00
78170;BME280;67412;49.892;14.490;2024-03-02T05:23:57;96248.69;;;6.43;100.00
78170;BME280;67412;49.892;14.490;2024-03-02T05:26:22;96252.06;;;6.43;100.00
78170;BME280;67412;49.892;14.490;2024-03-02T05:28:48;96249.47;;;6.46;100.00
78170;BME280;67412;49.892;14.490;2024-03-02T05:31:16;96260.59;;;6.42;100.00
78170;BME280;67412;49.892;14.490;2024-03-02T05:33:42;96266.59;;;6.40;100.00
78170;BME280;67412;49.892;14.490;2024-03-02T05:36:07;96264.13;;;6.34;100.00
78170;BME280;67412;49.892;14.490;2024-03-02T05:38:34;96268.34;;;6.36;100.00
78170;BME280;67412;49.892;14.490;2024-03-02T05:41:00;96269.19;;;6.37;100.00
78170;BME280;67412;49.892;14.490;2024-03-02T05:43:25;96269.25;;;6.34;100.00
78170;BME280;67412;49.892;14.490;2024-03-02T05:45:51;96270.97;;;6.30;100.00
78170;BME280;67412;49.892;14.490;2024-03-02T05:48:16;96270.09;;;6.32;100.00
78170;BME280;67412;49.892;14.490;2024-03-02T05:50:41;96278.59;;;6.33;100.00
78170;BME280;67412;49.892;14.490;2024-03-02T05:53:07;96271.69;;;6.38;100.00
78170;BME280;67412;49.892;14.490;2024-03-02T05:55:32;96276.84;;;6.35;100.00
78170;BME280;67412;49.892;14.490;2024-03-02T05:57:58;96281.91;;;6.38;100.00
78170;BME280;67412;49.892;14.490;2024-03-02T06:00:23;96278.53;;;6.36;100.00
78170;BME280;67412;49.892;14.490;2024-03-02T06:02:48;96279.41;;;6.35;100.00
78170;BME280;67412;49.892;14.490;2024-03-02T06:05:14;96281.91;;;6.38;100.00
78170;BME280;67412;49.892;14.490;2024-03-02T06:07:40;96285.19;;;6.46;100.00
78170;BME280;67412;49.892;14.490;2024-03-02T06:10:06;96282.00;;;6.32;100.00
78170;BME280;67412;49.892;14.490;2024-03-02T06:12:32;96290.56;;;6.26;100.00
78170;BME280;67412;49.892;14.490;2024-03-02T06:14:58;96289.69;;;6.29;100.00
78170;BME280;67412;49.892;14.490;2024-03-02T06:17:23;96288.81;;;6.30;100.00
78170;BME280;67412;49.892;14.490;2024-03-02T06:19:48;96298.94;;;6.36;100.00
78170;BME280;67412;49.892;14.490;2024-03-02T06:22:14;96296.41;;;6.36;100.00
78170;BME280;67412;49.892;14.490;2024-03-02T06:24:39;96301.50;;;6.35;100.00
78170;BME280;67412;49.892;14.490;2024-03-02T06:27:05;96297.16;;;6.41;100.00
78170;BME280;67412;49.892;14.490;2024-03-02T06:29:33;96300.59;;;6.40;100.00
78170;BME280;67412;49.892;14.490;2024-03-02T06:31:59;96314.16;;;6.42;100.00
78170;BME280;67412;49.892;14.490;2024-03-02T06:34:25;96314.09;;;6.48;100.00
78170;BME280;67412;49.892;14.490;2024-03-02T06:36:50;96308.88;;;6.53;100.00
78170;BME280;67412;49.892;14.490;2024-03-02T06:39:15;96311.44;;;6.53;100.00
78170;BME280;67412;49.892;14.490;2024-03-02T06:41:41;96303.78;;;6.54;100.00
78170;BME280;67412;49.892;14.490;2024-03-02T06:44:08;96319.03;;;6.57;100.00
78170;BME280;67412;49.892;14.490;2024-03-02T06:46:33;96313.88;;;6.60;100.00
78170;BME280;67412;49.892;14.490;2024-03-02T06:48:58;96313.03;;;6.61;100.00
78170;BME280;67412;49.892;14.490;2024-03-02T06:51:24;96311.22;;;6.68;100.00
78170;BME280;67412;49.892;14.490;2024-03-02T06:53:49;96315.34;;;6.75;100.00
78170;BME280;67412;49.892;14.490;2024-03-02T06:56:14;96329.00;;;6.74;100.00
78170;BME280;67412;49.892;14.490;2024-03-02T06:58:40;96331.50;;;6.77;100.00
78170;BME280;67412;49.892;14.490;2024-03-02T07:01:05;96328.09;;;6.76;100.00
78170;BME280;67412;49.892;14.490;2024-03-02T07:03:30;96344.28;;;6.75;100.00
78170;BME280;67412;49.892;14.490;2024-03-02T07:05:56;96345.97;;;6.78;100.00
78170;BME280;67412;49.892;14.490;2024-03-02T07:08:22;96349.38;;;6.77;100.00
78170;BME280;67412;49.892;14.490;2024-03-02T07:10:47;96352.84;;;6.71;100.00
78170;BME280;67412;49.892;14.490;2024-03-02T07:13:13;96346.94;;;6.69;100.00
78170;BME280;67412;49.892;14.490;2024-03-02T07:15:38;96347.72;;;6.73;100.00
78170;BME280;67412;49.892;14.490;2024-03-02T07:18:22;96357.03;;;6.77;100.00
78170;BME280;67412;49.892;14.490;2024-03-02T07:20:48;96364.63;;;6.82;100.00
78170;BME280;67412;49.892;14.490;2024-03-02T07:23:14;96362.13;;;6.78;100.00
78170;BME280;67412;49.892;14.490;2024-03-02T07:25:40;96372.19;;;6.86;100.00
78170;BME280;67412;49.892;14.490;2024-03-02T07:28:05;96373.88;;;6.89;100.00
78170;BME280;67412;49.892;14.490;2024-03-02T07:30:32;96369.56;;;6.91;100.00
78170;BME280;67412;49.892;14.490;2024-03-02T07:32:59;96375.47;;;6.96;100.00
78170;BME280;67412;49.892;14.490;2024-03-02T07:35:24;96372.72;;;7.08;100.00
78170;BME280;67412;49.892;14.490;2024-03-02T07:37:53;96376.94;;;7.10;100.00
78170;BME280;67412;49.892;14.490;2024-03-02T07:40:19;96375.94;;;7.19;100.00
78170;BME280;67412;49.892;14.490;2024-03-02T07:42:45;96365.63;;;7.25;100.00
78170;BME280;67412;49.892;14.490;2024-03-02T07:45:10;96366.34;;;7.33;100.00
78170;BME280;67412;49.892;14.490;2024-03-02T07:47:36;96365.41;;;7.37;100.00
78170;BME280;67412;49.892;14.490;2024-03-02T07:50:02;96357.81;;;7.33;100.00
78170;BME280;67412;49.892;14.490;2024-03-02T07:52:28;96363.06;;;7.26;100.00
78170;BME280;67412;49.892;14.490;2024-03-02T07:54:53;96360.56;;;7.20;100.00
78170;BME280;67412;49.892;14.490;2024-03-02T07:57:19;96358.00;;;7.23;100.00
78170;BME280;67412;49.892;14.490;2024-03-02T07:59:45;96364.69;;;7.31;100.00
78170;BME280;67412;49.892;14.490;2024-03-02T08:02:10;96359.41;;;7.40;100.00
78170;BME280;67412;49.892;14.490;2024-03-02T08:04:36;96355.16;;;7.39;100.00
78170;BME280;67412;49.892;14.490;2024-03-02T08:07:02;96355.84;;;7.48;100.00
78170;BME280;67412;49.892;14.490;2024-03-02T08:09:28;96371.91;;;7.55;100.00
78170;BME280;67412;49.892;14.490;2024-03-02T08:11:53;96362.63;;;7.51;100.00
78170;BME280;67412;49.892;14.490;2024-03-02T08:14:18;96368.50;;;7.54;100.00
78170;BME280;67412;49.892;14.490;2024-03-02T08:16:45;96363.41;;;7.54;100.00
78170;BME280;67412;49.892;14.490;2024-03-02T08:19:10;96363.19;;;7.66;100.00
78170;BME280;67412;49.892;14.490;2024-03-02T08:21:36;96375.09;;;7.67;100.00
78170;BME280;67412;49.892;14.490;2024-03-02T08:24:02;96370.63;;;7.78;100.00
78170;BME280;67412;49.892;14.490;2024-03-02T08:26:27;96379.00;;;7.87;100.00
78170;BME280;67412;49.892;14.490;2024-03-02T08:28:57;96373.13;;;7.83;100.00
78170;BME280;67412;49.892;14.490;2024-03-02T08:31:23;96378.31;;;7.78;100.00
78170;BME280;67412;49.892;14.490;2024-03-02T08:33:48;96374.78;;;7.84;100.00
78170;BME280;67412;49.892;14.490;2024-03-02T08:36:14;96377.53;;;7.75;100.00
78170;BME280;67412;49.892;14.490;2024-03-02T08:38:40;96376.47;;;7.87;100.00
78170;BME280;67412;49.892;14.490;2024-03-02T08:41:06;96375.56;;;7.89;100.00
78170;BME280;67412;49.892;14.490;2024-03-02T08:43:32;96372.72;;;8.03;100.00
78170;BME280;67412;49.892;14.490;2024-03-02T08:45:57;96377.50;;;8.21;100.00
78170;BME280;67412;49.892;14.490;2024-03-02T08:48:23;96379.00;;;8.31;100.00
78170;BME280;67412;49.892;14.490;2024-03-02T08:50:48;96380.56;;;8.40;100.00
78170;BME280;67412;49.892;14.490;2024-03-02T08:53:13;96379.91;;;8.68;100.00
78170;BME280;67412;49.892;14.490;2024-03-02T08:55:43;96381.50;;;8.74;100.00
78170;BME280;67412;49.892;14.490;2024-03-02T08:58:08;96383.19;;;8.75;100.00
78170;BME280;67412;49.892;14.490;2024-03-02T09:00:34;96377.72;;;8.90;100.00
78170;BME280;67412;49.892;14.490;2024-03-02T09:02:59;96375.50;;;9.12;100.00
78170;BME280;67412;49.892;14.490;2024-03-02T09:05:24;96388.19;;;9.16;100.00
78170;BME280;67412;49.892;14.490;2024-03-02T09:07:50;96386.66;;;9.11;100.00
78170;BME280;67412;49.892;14.490;2024-03-02T09:10:15;96389.31;;;9.05;100.00
78170;BME280;67412;49.892;14.490;2024-03-02T09:12:41;96388.13;;;8.83;100.00
78170;BME280;67412;49.892;14.490;2024-03-02T09:15:06;96388.53;;;9.03;100.00
78170;BME280;67412;49.892;14.490;2024-03-02T09:17:32;96383.94;;;9.17;100.00
78170;BME280;67412;49.892;14.490;2024-03-02T09:19:58;96381.97;;;9.27;100.00
78170;BME280;67412;49.892;14.490;2024-03-02T09:22:23;96385.25;;;9.33;100.00
78170;BME280;67412;49.892;14.490;2024-03-02T09:24:48;96379.19;;;9.36;100.00
78170;BME280;67412;49.892;14.490;2024-03-02T09:27:14;96378.13;;;9.44;100.00
78170;BME280;67412;49.892;14.490;2024-03-02T09:29:39;96379.66;;;9.17;100.00
78170;BME280;67412;49.892;14.490;2024-03-02T09:32:08;96385.38;;;8.92;100.00
78170;BME280;67412;49.892;14.490;2024-03-02T09:34:37;96389.00;;;8.82;100.00
78170;BME280;67412;49.892;14.490;2024-03-02T09:37:02;96381.56;;;8.71;100.00
78170;BME280;67412;49.892;14.490;2024-03-02T09:39:29;96374.22;;;8.93;100.00
78170;BME280;67412;49.892;14.490;2024-03-02T09:41:55;96380.44;;;9.19;100.00
78170;BME280;67412;49.892;14.490;2024-03-02T09:44:21;96374.94;;;9.35;100.00
78170;BME280;67412;49.892;14.490;2024-03-02T09:46:50;96375.97;;;9.61;100.00
78170;BME280;67412;49.892;14.490;2024-03-02T09:49:16;96374.06;;;9.69;100.00
78170;BME280;67412;49.892;14.490;2024-03-02T09:51:46;96379.94;;;9.75;100.00
78170;BME280;67412;49.892;14.490;2024-03-02T09:54:12;96376.50;;;9.74;100.00
78170;BME280;67412;49.892;14.490;2024-03-02T09:56:37;96378.31;;;9.70;100.00
78170;BME280;67412;49.892;14.490;2024-03-02T09:59:04;96377.78;;;9.90;100.00
78170;BME280;67412;49.892;14.490;2024-03-02T10:01:30;96386.06;;;9.67;100.00
78170;BME280;67412;49.892;14.490;2024-03-02T10:03:59;96391.06;;;9.74;100.00
78170;BME280;67412;49.892;14.490;2024-03-02T10:06:26;96384.78;;;9.51;100.00
78170;BME280;67412;49.892;14.490;2024-03-02T10:08:52;96389.44;;;9.69;100.00
78170;BME280;67412;49.892;14.490;2024-03-02T10:11:34;96391.72;;;9.82;100.00
78170;BME280;67412;49.892;14.490;2024-03-02T10:14:08;96381.31;;;9.52;100.00
78170;BME280;67412;49.892;14.490;2024-03-02T10:16:35;96393.81;;;9.66;100.00
78170;BME280;67412;49.892;14.490;2024-03-02T10:19:22;96383.16;;;9.81;100.00
78170;BME280;67412;49.892;14.490;2024-03-02T10:21:48;96390.41;;;9.65;100.00
78170;BME280;67412;49.892;14.490;2024-03-02T10:24:18;96381.47;;;9.48;100.00
78170;BME280;67412;49.892;14.490;2024-03-02T10:26:44;96386.88;;;9.37;100.00
78170;BME280;67412;49.892;14.490;2024-03-02T10:29:09;96383.66;;;9.61;100.00
78170;BME280;67412;49.892;14.490;2024-03-02T10:31:38;96379.97;;;9.73;100.00
78170;BME280;67412;49.892;14.490;2024-03-02T10:34:05;96378.69;;;9.89;100.00
78170;BME280;67412;49.892;14.490;2024-03-02T10:36:32;96374.31;;;9.93;100.00
78170;BME280;67412;49.892;14.490;2024-03-02T10:38:58;96364.91;;;9.92;100.00
78170;BME280;67412;49.892;14.490;2024-03-02T10:41:26;96356.44;;;10.21;100.00
78170;BME280;67412;49.892;14.490;2024-03-02T10:43:53;96360.28;;;10.35;100.00
78170;BME280;67412;49.892;14.490;2024-03-02T10:46:28;96357.38;;;10.18;100.00
78170;BME280;67412;49.892;14.490;2024-03-02T10:48:57;96357.47;;;10.15;100.00
78170;BME280;67412;49.892;14.490;2024-03-02T10:51:26;96360.56;;;10.26;100.00
78170;BME280;67412;49.892;14.490;2024-03-02T10:53:53;96357.81;;;10.61;100.00
78170;BME280;67412;49.892;14.490;2024-03-02T10:56:31;96352.94;;;10.82;100.00
78170;BME280;67412;49.892;14.490;2024-03-02T10:59:06;96357.25;;;11.07;100.00
78170;BME280;67412;49.892;14.490;2024-03-02T11:01:42;96359.28;;;10.98;100.00
78170;BME280;67412;49.892;14.490;2024-03-02T11:04:08;96351.00;;;10.88;100.00
78170;BME280;67412;49.892;14.490;2024-03-02T11:06:35;96347.31;;;10.97;100.00
78170;BME280;67412;49.892;14.490;2024-03-02T11:09:06;96345.94;;;11.13;100.00
78170;BME280;67412;49.892;14.490;2024-03-02T11:11:36;96340.94;;;11.08;100.00
78170;BME280;67412;49.892;14.490;2024-03-02T11:14:04;96339.06;;;11.13;100.00
78170;BME280;67412;49.892;14.490;2024-03-02T11:16:36;96337.16;;;11.20;100.00
78170;BME280;67412;49.892;14.490;2024-03-02T11:19:07;96332.19;;;11.14;100.00
78170;BME280;67412;49.892;14.490;2024-03-02T11:21:37;96330.28;;;10.66;100.00
78170;BME280;67412;49.892;14.490;2024-03-02T11:26:47;96321.91;;;11.14;100.00
78170;BME280;67412;49.892;14.490;2024-03-02T11:32:00;96322.13;;;11.08;100.00
78170;BME280;67412;49.892;14.490;2024-03-02T11:34:35;96315.63;;;11.23;100.00
78170;BME280;67412;49.892;14.490;2024-03-02T11:37:02;96316.94;;;11.09;100.00
78170;BME280;67412;49.892;14.490;2024-03-02T11:39:28;96323.63;;;11.13;100.00
78170;BME280;67412;49.892;14.490;2024-03-02T11:41:55;96315.34;;;11.32;100.00
78170;BME280;67412;49.892;14.490;2024-03-02T11:44:20;96320.97;;;11.43;100.00
78170;BME280;67412;49.892;14.490;2024-03-02T11:46:52;96318.50;;;11.64;100.00
78170;BME280;67412;49.892;14.490;2024-03-02T11:49:39;96313.63;;;11.57;100.00
78170;BME280;67412;49.892;14.490;2024-03-02T11:52:07;96311.56;;;11.42;100.00
78170;BME280;67412;49.892;14.490;2024-03-02T11:54:33;96314.03;;;10.66;100.00
78170;BME280;67412;49.892;14.490;2024-03-02T11:57:02;96317.56;;;10.90;100.00
78170;BME280;67412;49.892;14.490;2024-03-02T11:59:29;96318.59;;;11.10;100.00
78170;BME280;67412;49.892;14.490;2024-03-02T12:01:54;96313.31;;;11.15;100.00
78170;BME280;67412;49.892;14.490;2024-03-02T12:04:21;96316.09;;;11.35;100.00
78170;BME280;67412;49.892;14.490;2024-03-02T12:06:48;96317.25;;;11.25;100.00
78170;BME280;67412;49.892;14.490;2024-03-02T12:09:13;96314.13;;;11.42;100.00
78170;BME280;67412;49.892;14.490;2024-03-02T12:11:40;96309.69;;;11.47;100.00
78170;BME280;67412;49.892;14.490;2024-03-02T12:14:11;96309.97;;;11.38;100.00
78170;BME280;67412;49.892;14.490;2024-03-02T12:16:38;96313.03;;;11.49;100.00
78170;BME280;67412;49.892;14.490;2024-03-02T12:19:04;96309.59;;;11.24;100.00
78170;BME280;67412;49.892;14.490;2024-03-02T12:21:30;96314.59;;;11.28;100.00
78170;BME280;67412;49.892;14.490;2024-03-02T12:23:55;96308.75;;;11.23;100.00
78170;BME280;67412;49.892;14.490;2024-03-02T12:26:22;96310.59;;;11.20;100.00
78170;BME280;67412;49.892;14.490;2024-03-02T12:28:47;96306.66;;;11.09;100.00
78170;BME280;67412;49.892;14.490;2024-03-02T12:31:13;96309.41;;;11.03;100.00
78170;BME280;67412;49.892;14.490;2024-03-02T12:33:40;96316.97;;;10.82;100.00
78170;BME280;67412;49.892;14.490;2024-03-02T12:36:09;96310.22;;;10.78;100.00
78170;BME280;67412;49.892;14.490;2024-03-02T12:38:34;96307.19;;;10.65;100.00
78170;BME280;67412;49.892;14.490;2024-03-02T12:41:00;96313.16;;;10.65;100.00
78170;BME280;67412;49.892;14.490;2024-03-02T12:43:30;96308.00;;;10.67;100.00
78170;BME280;67412;49.892;14.490;2024-03-02T12:45:55;96304.50;;;10.70;100.00
78170;BME280;67412;49.892;14.490;2024-03-02T12:48:21;96302.72;;;10.72;100.00
78170;BME280;67412;49.892;14.490;2024-03-02T12:50:47;96311.66;;;10.60;100.00
78170;BME280;67412;49.892;14.490;2024-03-02T12:53:16;96306.31;;;10.38;100.00